Darstellungsparameter: Aktuell verwendete Einstellungen:
Skalierung der Graphiken ... ?
xyx+y,   Skalierungsfaktor:      Skalierung: Modus: x, Faktor: 1
Darstellungszeitraum ... ?
Vom - - bis: - -   Zeitraum: 02.03.2010 - 03.03.2010
Min/Max/Avg-Anzeige ... ?
Zeige MMA aktuell
Zeige MMA Monat
Zeige MMA alles
Zeige --A aktuell
Zeige --A Monat
Zeige --A alles
Keine MMA-Anzeige
MMA:
Average (ber die Originaldaten)
MMA-Basis: 02.02.2010 - 04.03.2010
Quicknavigation für Darstellung... ?
Tage:      1T, 2T, 3T, 5T -1T -2T -3T -5T +1T +2T +3T +5T
Wochen: 1W, 2W, 3W -1W -2W -3W +1W +2W +3W
Monate: 1M, 3M, 6M -1M -3M -6M +1M +3M +6M
Jahre:    1J, 3J, 5J, 10J -1J -3J -5J -10J +1J +3J +5J +10J
Nutze für die Darstellung ... ?
Originaldaten oder Mittelwerte auf ...
Stundenbasis Tagesbasis Wochenbasis
Monatsbasis Jahresbasis      Datenbasis: Original-Daten
Darstellen als:
Statistik (Auto) Statistik J:M      Darstellung:
Zur Graphik,    zurück zur Übersicht aller Sensoren.
 
Tabellarische Datenbersicht: ?
 
Sensor: Nr:Datum:Temp:Abs-Feuchte:Windchill:Wind:
Aussen-T/F 1 02-03-2010 00:09:03 0.9 C 3.97 g/m*3 0.9 C 0 km/h
2 02-03-2010 00:21:03 0.7 C 3.97 g/m*3 0.7 C 0 km/h
3 02-03-2010 00:33:03 0.5 C 3.96 g/m*3 0.5 C 0 km/h
4 02-03-2010 00:45:03 0.2 C 3.88 g/m*3 0.2 C 0 km/h
5 02-03-2010 00:57:03 0.2 C 3.88 g/m*3 0.2 C 0 km/h
6 02-03-2010 01:09:03 0.1 C 3.9 g/m*3 0.1 C 0 km/h
7 02-03-2010 01:21:03 0.2 C 3.98 g/m*3 0.2 C 0 km/h
8 02-03-2010 01:33:03 0.3 C 4.01 g/m*3 0.3 C 0 km/h
9 02-03-2010 01:45:03 0 C 3.92 g/m*3 0 C 0 km/h
10 02-03-2010 01:57:03 0 C 3.97 g/m*3 0 C 0 km/h
11 02-03-2010 02:09:03 0 C 3.97 g/m*3 0 C 0 km/h
12 02-03-2010 02:21:04 -0.2 C 3.92 g/m*3 -0.2 C 0 km/h
13 02-03-2010 02:33:04 -0.2 C 3.97 g/m*3 -0.2 C 0 km/h
14 02-03-2010 02:45:04 -0.4 C 3.91 g/m*3 -0.4 C 0 km/h
15 02-03-2010 02:57:04 -0.6 C 3.86 g/m*3 -0.6 C 0 km/h
16 02-03-2010 03:09:04 -0.7 C 3.83 g/m*3 -0.7 C 0 km/h
17 02-03-2010 03:21:04 -0.6 C 3.86 g/m*3 -0.6 C 0 km/h
18 02-03-2010 03:33:04 -0.7 C 3.83 g/m*3 -0.7 C 0 km/h
19 02-03-2010 03:45:04 -0.9 C 3.82 g/m*3 -0.9 C 0 km/h
20 02-03-2010 03:57:04 -1 C 3.8 g/m*3 -1 C 0 km/h
21 02-03-2010 04:09:04 -1.3 C 3.72 g/m*3 -1.3 C 0 km/h
22 02-03-2010 04:21:04 -1.3 C 3.72 g/m*3 -1.3 C 0 km/h
23 02-03-2010 04:33:04 -1.4 C 3.69 g/m*3 -1.4 C 0 km/h
24 02-03-2010 04:45:04 -1.2 C 3.79 g/m*3 -1.2 C 0 km/h
25 02-03-2010 04:57:04 -1.2 C 3.79 g/m*3 -1.2 C 0 km/h
Sensor: Nr:Datum:Temp:Abs-Feuchte:Windchill:Wind:
Aussen-T/F 26 02-03-2010 05:09:04 -1.1 C 3.86 g/m*3 -1.1 C 0 km/h
27 02-03-2010 05:21:04 -1.1 C 3.86 g/m*3 -1.1 C 0 km/h
28 02-03-2010 05:33:04 -1.1 C 3.86 g/m*3 -1.1 C 0 km/h
29 02-03-2010 05:45:04 -1.1 C 3.86 g/m*3 -1.1 C 0 km/h
30 02-03-2010 05:57:04 -1.4 C 3.74 g/m*3 -1.4 C 0 km/h
31 02-03-2010 06:09:04 -1.6 C 3.68 g/m*3 -1.6 C 0 km/h
32 02-03-2010 06:21:04 -1.7 C 3.66 g/m*3 -1.7 C 0 km/h
33 02-03-2010 06:33:05 -1.8 C 3.63 g/m*3 -1.8 C 0 km/h
34 02-03-2010 06:45:05 -1.9 C 3.65 g/m*3 -1.9 C 0 km/h
35 02-03-2010 06:57:05 -1.9 C 3.65 g/m*3 -1.9 C 0 km/h
36 02-03-2010 07:09:02 -2 C 3.63 g/m*3 -2 C 0 km/h
37 02-03-2010 07:21:03 -1.8 C 3.72 g/m*3 -1.8 C 0 km/h
38 02-03-2010 07:33:02 -1.8 C 3.72 g/m*3 -1.8 C 0 km/h
39 02-03-2010 07:45:02 -1.6 C 3.77 g/m*3 -1.6 C 0 km/h
40 02-03-2010 07:57:02 -1.2 C 3.92 g/m*3 -1.2 C 0 km/h
41 02-03-2010 08:09:02 -0.9 C 4.01 g/m*3 -0.9 C 0 km/h
42 02-03-2010 08:21:02 -0.7 C 4.06 g/m*3 -0.7 C 0 km/h
43 02-03-2010 08:33:03 -0.7 C 4.06 g/m*3 -0.7 C 0 km/h
44 02-03-2010 08:45:02 -0.6 C 4.09 g/m*3 -0.6 C 0 km/h
45 02-03-2010 08:57:03 -0.6 C 4.09 g/m*3 -0.6 C 0 km/h
46 02-03-2010 09:09:01 -0.5 C 4.07 g/m*3 -0.5 C 0 km/h
47 02-03-2010 09:21:02 0 C 4.26 g/m*3 0 C 0 km/h
48 02-03-2010 09:33:02 0.1 C 4.24 g/m*3 0.1 C 0 km/h
49 02-03-2010 09:45:02 -0.1 C 4.14 g/m*3 -0.1 C 0 km/h
50 02-03-2010 09:57:02 -0.1 C 4.14 g/m*3 -0.1 C 0 km/h
Sensor: Nr:Datum:Temp:Abs-Feuchte:Windchill:Wind:
Aussen-T/F 51 02-03-2010 10:09:03 0.3 C 4.25 g/m*3 0.3 C 0 km/h
52 02-03-2010 10:21:02 0.7 C 4.32 g/m*3 0.7 C 0 km/h
53 02-03-2010 10:33:02 1.2 C 4.42 g/m*3 1.2 C 0 km/h
54 02-03-2010 10:45:01 1.6 C 4.49 g/m*3 1.6 C 0 km/h
55 02-03-2010 10:57:01 2.1 C 4.48 g/m*3 2.1 C 0 km/h
56 02-03-2010 11:09:02 2.6 C 4.57 g/m*3 2.6 C 0 km/h
57 02-03-2010 11:21:01 3.1 C 4.61 g/m*3 3.1 C 0 km/h
58 02-03-2010 11:33:02 4 C 4.7 g/m*3 4 C 0 km/h
59 02-03-2010 11:45:02 4 C 4.51 g/m*3 4 C 0 km/h
60 02-03-2010 11:57:02 4.2 C 4.25 g/m*3 4.2 C 0 km/h
61 02-03-2010 12:09:02 5.1 C 3.63 g/m*3 5.1 C 0 km/h
62 02-03-2010 12:21:01 6.1 C 3.29 g/m*3 6.1 C 0 km/h
63 02-03-2010 12:33:02 6.3 C 3.26 g/m*3 6.3 C 0 km/h
64 02-03-2010 12:45:02 7 C 3.02 g/m*3 7 C 0 km/h
65 02-03-2010 12:57:02 7.4 C 2.86 g/m*3 7.4 C 0 km/h
66 02-03-2010 13:09:02 8.1 C 2.91 g/m*3 8.1 C 0 km/h
67 02-03-2010 13:21:01 9.1 C 2.75 g/m*3 9.1 C 0 km/h
68 02-03-2010 13:33:02 8.5 C 2.65 g/m*3 8.5 C 0 km/h
69 02-03-2010 13:45:01 9.5 C 2.73 g/m*3 9.5 C 0 km/h
70 02-03-2010 13:57:01 10.3 C 2.49 g/m*3 10.3 C 0 km/h
71 02-03-2010 14:09:02 10.2 C 2.38 g/m*3 10.2 C 0 km/h
72 02-03-2010 14:21:02 10.1 C 2.65 g/m*3 10.1 C 0 km/h
73 02-03-2010 14:33:02 9.5 C 2.28 g/m*3 9.5 C 0 km/h
74 02-03-2010 14:45:02 9.5 C 2.46 g/m*3 9.5 C 0 km/h
75 02-03-2010 14:57:02 9 C 2.29 g/m*3 9 C 0 km/h
Sensor: Nr:Datum:Temp:Abs-Feuchte:Windchill:Wind:
Aussen-T/F 76 02-03-2010 15:09:02 8.7 C 2.42 g/m*3 8.7 C 0 km/h
77 02-03-2010 15:21:02 9.5 C 2.55 g/m*3 9.5 C 0 km/h
78 02-03-2010 15:33:01 10.3 C 2.49 g/m*3 10.3 C 0 km/h
79 02-03-2010 15:45:02 11 C 2.4 g/m*3 11 C 0 km/h
80 02-03-2010 15:57:02 10.7 C 1.96 g/m*3 10.7 C 0 km/h
81 02-03-2010 16:09:01 9.7 C 1.84 g/m*3 9.7 C 0 km/h
82 02-03-2010 16:21:02 9.5 C 1.82 g/m*3 9.5 C 0 km/h
83 02-03-2010 16:33:01 8.7 C 2.51 g/m*3 8.7 C 0 km/h
84 02-03-2010 16:45:02 8.4 C 2.63 g/m*3 8.4 C 0 km/h
85 02-03-2010 16:57:03 8.7 C 2.77 g/m*3 8.7 C 0 km/h
86 02-03-2010 17:09:02 8.7 C 2.77 g/m*3 8.7 C 0 km/h
87 02-03-2010 17:21:02 9 C 2.73 g/m*3 9 C 0 km/h
88 02-03-2010 17:33:02 8.4 C 2.71 g/m*3 8.4 C 0 km/h
89 02-03-2010 17:45:02 8.2 C 2.93 g/m*3 8.2 C 0 km/h
90 02-03-2010 17:57:03 7.9 C 2.96 g/m*3 7.9 C 0 km/h
91 02-03-2010 18:09:01 7.5 C 3.04 g/m*3 7.5 C 0 km/h
92 02-03-2010 18:21:02 7 C 3.1 g/m*3 7 C 0 km/h
93 02-03-2010 18:33:02 6.5 C 3.3 g/m*3 6.5 C 0 km/h
94 02-03-2010 18:45:02 6.2 C 3.38 g/m*3 6.2 C 0 km/h
95 02-03-2010 18:57:02 5.9 C 3.53 g/m*3 5.9 C 0 km/h
96 02-03-2010 19:09:01 5.9 C 3.53 g/m*3 5.9 C 0 km/h
97 02-03-2010 19:21:02 5.9 C 3.39 g/m*3 5.9 C 0 km/h
98 02-03-2010 19:33:02 5.8 C 3.3 g/m*3 5.8 C 0 km/h
99 02-03-2010 19:45:01 5.8 C 3.3 g/m*3 5.8 C 0 km/h
100 02-03-2010 19:57:01 5.8 C 3.3 g/m*3 5.8 C 0 km/h
Sensor: Nr:Datum:Temp:Abs-Feuchte:Windchill:Wind:
Aussen-T/F 101 02-03-2010 20:09:02 6 C 3.19 g/m*3 6 C 0 km/h
102 02-03-2010 20:21:01 5.8 C 3.22 g/m*3 5.8 C 0 km/h
103 02-03-2010 20:33:01 5.5 C 3.3 g/m*3 5.5 C 0 km/h
104 02-03-2010 20:45:01 5 C 3.47 g/m*3 5 C 0 km/h
105 02-03-2010 20:57:02 4.4 C 3.66 g/m*3 4.4 C 0 km/h
106 02-03-2010 21:09:01 4.3 C 3.83 g/m*3 4.3 C 0 km/h
107 02-03-2010 21:21:02 3.8 C 4.02 g/m*3 3.8 C 0 km/h
108 02-03-2010 21:33:02 3.2 C 4.34 g/m*3 3.2 C 0 km/h
109 02-03-2010 21:45:02 2.9 C 4.43 g/m*3 2.9 C 0 km/h
110 02-03-2010 21:57:02 2.7 C 4.43 g/m*3 2.7 C 0 km/h
111 02-03-2010 22:10:02 2.5 C 4.37 g/m*3 2.5 C 0 km/h
112 02-03-2010 22:22:02 2.5 C 4.43 g/m*3 2.5 C 0 km/h
113 02-03-2010 22:34:02 2.4 C 4.34 g/m*3 2.4 C 0 km/h
114 02-03-2010 22:46:02 2.2 C 4.34 g/m*3 2.2 C 0 km/h
115 02-03-2010 22:58:02 2 C 4.28 g/m*3 2 C 0 km/h
116 02-03-2010 23:10:02 1.8 C 4.28 g/m*3 1.8 C 0 km/h
117 02-03-2010 23:22:02 1.7 C 4.3 g/m*3 1.7 C 0 km/h
118 02-03-2010 23:34:02 1.5 C 4.24 g/m*3 1.5 C 0 km/h
119 02-03-2010 23:46:02 1.3 C 4.19 g/m*3 1.3 C 0 km/h
120 02-03-2010 23:58:02 1.3 C 4.13 g/m*3 1.3 C 0 km/h
121 03-03-2010 00:10:03 1.1 C 4.08 g/m*3 1.1 C 0 km/h
122 03-03-2010 00:22:03 1.2 C 4.05 g/m*3 1.2 C 0 km/h
123 03-03-2010 00:34:03 1.1 C 3.92 g/m*3 1.1 C 0 km/h
124 03-03-2010 00:46:03 0.9 C 3.87 g/m*3 0.9 C 0 km/h
125 03-03-2010 00:58:03 0.9 C 3.81 g/m*3 0.9 C 0 km/h
Sensor: Nr:Datum:Temp:Abs-Feuchte:Windchill:Wind:
Aussen-T/F 126 03-03-2010 01:10:03 0.8 C 3.79 g/m*3 0.8 C 0 km/h
127 03-03-2010 01:22:03 0.5 C 3.71 g/m*3 0.5 C 0 km/h
128 03-03-2010 01:34:03 0.3 C 3.66 g/m*3 0.3 C 0 km/h
129 03-03-2010 01:46:03 0.1 C 3.66 g/m*3 0.1 C 0 km/h
130 03-03-2010 01:58:03 -0.1 C 3.66 g/m*3 -0.1 C 0 km/h
131 03-03-2010 02:10:03 0 C 3.78 g/m*3 0 C 0 km/h
132 03-03-2010 02:22:03 -0.1 C 3.8 g/m*3 -0.1 C 0 km/h
133 03-03-2010 02:34:03 -0.4 C 3.72 g/m*3 -0.4 C 0 km/h
134 03-03-2010 02:46:03 -0.5 C 3.74 g/m*3 -0.5 C 0 km/h
135 03-03-2010 02:58:03 -0.6 C 3.76 g/m*3 -0.6 C 0 km/h
136 03-03-2010 03:10:03 -0.7 C 3.74 g/m*3 -0.7 C 0 km/h
137 03-03-2010 03:22:03 -0.9 C 3.69 g/m*3 -0.9 C 0 km/h
138 03-03-2010 03:34:03 -0.9 C 3.73 g/m*3 -0.9 C 0 km/h
139 03-03-2010 03:46:03 -1 C 3.71 g/m*3 -1 C 0 km/h
140 03-03-2010 03:58:04 -1.1 C 3.68 g/m*3 -1.1 C 0 km/h
141 03-03-2010 04:10:04 -1.2 C 3.7 g/m*3 -1.2 C 0 km/h
142 03-03-2010 04:22:04 -1.3 C 3.67 g/m*3 -1.3 C 0 km/h
143 03-03-2010 04:34:04 -1.5 C 3.62 g/m*3 -1.5 C 0 km/h
144 03-03-2010 04:46:04 -1.4 C 3.69 g/m*3 -1.4 C 0 km/h
145 03-03-2010 04:58:04 -1.6 C 3.64 g/m*3 -1.6 C 0 km/h
146 03-03-2010 05:10:04 -1.7 C 3.62 g/m*3 -1.7 C 0 km/h
147 03-03-2010 05:22:04 -2 C 3.54 g/m*3 -2 C 0 km/h
148 03-03-2010 05:34:04 -2 C 3.54 g/m*3 -2 C 0 km/h
149 03-03-2010 05:46:04 -2.1 C 3.52 g/m*3 -2.1 C 0 km/h
150 03-03-2010 05:58:04 -2.1 C 3.56 g/m*3 -2.1 C 0 km/h
Sensor: Nr:Datum:Temp:Abs-Feuchte:Windchill:Wind:
Aussen-T/F 151 03-03-2010 06:10:04 -2.2 C 3.53 g/m*3 -2.2 C 0 km/h
152 03-03-2010 06:22:04 -1.8 C 3.68 g/m*3 -1.8 C 0 km/h
153 03-03-2010 06:34:04 -1.4 C 3.82 g/m*3 -1.4 C 0 km/h
154 03-03-2010 06:46:04 -1.1 C 3.91 g/m*3 -1.1 C 0 km/h
155 03-03-2010 06:58:04 -1.1 C 3.91 g/m*3 -1.1 C 0 km/h
156 03-03-2010 07:10:02 -1.1 C 3.86 g/m*3 -1.1 C 0 km/h
157 03-03-2010 07:22:02 -1.1 C 3.86 g/m*3 -1.1 C 0 km/h
158 03-03-2010 07:34:02 -1.1 C 3.82 g/m*3 -1.1 C 0 km/h
159 03-03-2010 07:46:02 -1.3 C 3.72 g/m*3 -1.3 C 0 km/h
160 03-03-2010 07:58:02 -1.5 C 3.67 g/m*3 -1.5 C 0 km/h
161 03-03-2010 08:10:02 -1.4 C 3.69 g/m*3 -1.4 C 0 km/h
162 03-03-2010 08:22:02 -1.3 C 3.72 g/m*3 -1.3 C 0 km/h
163 03-03-2010 08:34:02 -1.2 C 3.79 g/m*3 -1.2 C 0 km/h
164 03-03-2010 08:46:02 -0.7 C 3.92 g/m*3 -0.7 C 0 km/h
165 03-03-2010 08:58:02 0.1 C 4.2 g/m*3 0.1 C 0 km/h
166 03-03-2010 09:10:01 0.6 C 4.29 g/m*3 0.6 C 0 km/h
167 03-03-2010 09:22:02 0.8 C 4.15 g/m*3 0.8 C 0 km/h
168 03-03-2010 09:34:02 1 C 3.84 g/m*3 1 C 0 km/h
169 03-03-2010 09:46:02 1.2 C 3.68 g/m*3 1.2 C 0 km/h
170 03-03-2010 09:58:02 1.5 C 3.54 g/m*3 1.5 C 0 km/h
171 03-03-2010 10:10:03 1.4 C 3.41 g/m*3 1.4 C 0 km/h
172 03-03-2010 10:22:02 1.1 C 3.4 g/m*3 1.1 C 0 km/h
173 03-03-2010 10:34:02 1.2 C 3.47 g/m*3 1.2 C 0 km/h
174 03-03-2010 10:46:01 1.3 C 3.5 g/m*3 1.3 C 0 km/h
175 03-03-2010 10:58:01 1.7 C 3.54 g/m*3 1.7 C 0 km/h
Sensor: Nr:Datum:Temp:Abs-Feuchte:Windchill:Wind:
Aussen-T/F 176 03-03-2010 11:10:02 2.2 C 3.49 g/m*3 2.2 C 0 km/h
177 03-03-2010 11:22:01 2.5 C 3.45 g/m*3 2.5 C 0 km/h
178 03-03-2010 11:34:01 2.8 C 3.46 g/m*3 2.8 C 0 km/h
179 03-03-2010 11:46:01 3.1 C 3.35 g/m*3 3.1 C 0 km/h
180 03-03-2010 11:58:01 3.7 C 3.24 g/m*3 3.7 C 0 km/h
181 03-03-2010 12:10:02 4.3 C 3.24 g/m*3 4.3 C 0 km/h
182 03-03-2010 12:22:01 4.8 C 3.22 g/m*3 4.8 C 0 km/h
183 03-03-2010 12:34:02 5.1 C 3.15 g/m*3 5.1 C 0 km/h
184 03-03-2010 12:46:01 5.8 C 3.15 g/m*3 5.8 C 0 km/h
185 03-03-2010 12:58:01 6.5 C 3 g/m*3 6.5 C 0 km/h
186 03-03-2010 13:10:02 7 C 2.94 g/m*3 7 C 0 km/h
187 03-03-2010 13:22:01 7.8 C 2.86 g/m*3 7.8 C 0 km/h
188 03-03-2010 13:34:02 8.5 C 2.48 g/m*3 8.5 C 0 km/h
189 03-03-2010 13:46:01 8.9 C 2.19 g/m*3 8.9 C 0 km/h
190 03-03-2010 13:58:01 9.1 C 1.77 g/m*3 9.1 C 0 km/h
191 03-03-2010 14:10:02 9.4 C 1.81 g/m*3 9.4 C 0 km/h
192 03-03-2010 14:22:02 9.8 C 1.86 g/m*3 9.8 C 0 km/h
193 03-03-2010 14:34:01 10.3 C 1.92 g/m*3 10.3 C 0 km/h
194 03-03-2010 14:46:02 10.5 C 1.94 g/m*3 10.5 C 0 km/h
195 03-03-2010 14:58:02 10.2 C 1.9 g/m*3 10.2 C 0 km/h
196 03-03-2010 15:10:01 10.7 C 1.96 g/m*3 10.7 C 0 km/h
197 03-03-2010 15:22:02 11 C 2 g/m*3 11 C 0 km/h
198 03-03-2010 15:34:01 11 C 2 g/m*3 11 C 0 km/h
199 03-03-2010 15:46:03 10.5 C 1.94 g/m*3 10.5 C 0 km/h
200 03-03-2010 15:58:03 11 C 2 g/m*3 11 C 0 km/h
Sensor: Nr:Datum:Temp:Abs-Feuchte:Windchill:Wind:
Aussen-T/F 201 03-03-2010 16:10:02 11.2 C 2.03 g/m*3 11.2 C 0 km/h
202 03-03-2010 16:22:02 11.5 C 2.07 g/m*3 11.5 C 0 km/h
203 03-03-2010 16:34:02 11.1 C 2.01 g/m*3 11.1 C 0 km/h
204 03-03-2010 16:46:02 10.3 C 1.92 g/m*3 10.3 C 0 km/h
205 03-03-2010 16:58:02 10.3 C 1.92 g/m*3 10.3 C 0 km/h
206 03-03-2010 17:10:01 9.3 C 1.8 g/m*3 9.3 C 0 km/h
207 03-03-2010 17:22:02 8.5 C 1.71 g/m*3 8.5 C 0 km/h
208 03-03-2010 17:34:02 7.8 C 1.63 g/m*3 7.8 C 0 km/h
209 03-03-2010 17:46:02 7.2 C 1.96 g/m*3 7.2 C 0 km/h
210 03-03-2010 17:58:03 6.6 C 1.89 g/m*3 6.6 C 0 km/h
211 03-03-2010 18:10:02 6.2 C 2.21 g/m*3 6.2 C 0 km/h
212 03-03-2010 18:22:02 5.7 C 2.13 g/m*3 5.7 C 0 km/h
213 03-03-2010 18:34:03 5.4 C 2.02 g/m*3 5.4 C 0 km/h
214 03-03-2010 18:46:02 5.1 C 2.05 g/m*3 5.1 C 0 km/h
215 03-03-2010 18:58:02 4.8 C 2.15 g/m*3 4.8 C 0 km/h
216 03-03-2010 19:10:02 4.6 C 2.12 g/m*3 4.6 C 0 km/h
217 03-03-2010 19:22:02 4.4 C 2.15 g/m*3 4.4 C 0 km/h
218 03-03-2010 19:34:02 4.2 C 2.19 g/m*3 4.2 C 0 km/h
219 03-03-2010 19:46:02 4.1 C 2.24 g/m*3 4.1 C 0 km/h
220 03-03-2010 19:58:02 3.9 C 2.46 g/m*3 3.9 C 0 km/h
221 03-03-2010 20:10:02 3.7 C 2.49 g/m*3 3.7 C 0 km/h
222 03-03-2010 20:22:02 3.7 C 2.49 g/m*3 3.7 C 0 km/h
223 03-03-2010 20:34:02 3.6 C 2.54 g/m*3 3.6 C 0 km/h
224 03-03-2010 20:46:01 3.4 C 2.57 g/m*3 3.4 C 0 km/h
225 03-03-2010 20:58:01 3.3 C 2.55 g/m*3 3.3 C 0 km/h
Sensor: Nr:Datum:Temp:Abs-Feuchte:Windchill:Wind:
Aussen-T/F 226 03-03-2010 21:10:02 3.2 C 2.59 g/m*3 3.2 C 0 km/h
227 03-03-2010 21:22:01 3 C 2.62 g/m*3 3 C 0 km/h
228 03-03-2010 21:34:02 3 C 2.68 g/m*3 3 C 0 km/h
229 03-03-2010 21:46:02 2.9 C 2.72 g/m*3 2.9 C 0 km/h
230 03-03-2010 21:58:02 2.8 C 2.76 g/m*3 2.8 C 0 km/h
231 03-03-2010 22:11:02 2.7 C 2.8 g/m*3 2.7 C 0 km/h
232 03-03-2010 22:23:02 2.6 C 2.84 g/m*3 2.6 C 0 km/h
233 03-03-2010 22:35:02 2.5 C 2.82 g/m*3 2.5 C 0 km/h
234 03-03-2010 22:47:03 2.4 C 2.8 g/m*3 2.4 C 0 km/h
235 03-03-2010 22:59:03 2.2 C 2.82 g/m*3 2.2 C 0 km/h
236 03-03-2010 23:11:03 1.9 C 2.87 g/m*3 1.9 C 0 km/h
237 03-03-2010 23:23:03 1.7 C 2.89 g/m*3 1.7 C 0 km/h
238 03-03-2010 23:35:03 1.6 C 2.92 g/m*3 1.6 C 0 km/h
239 03-03-2010 23:47:03 1.5 C 2.95 g/m*3 1.5 C 0 km/h
240 03-03-2010 23:59:03 1.4 C 2.93 g/m*3 1.4 C 0 km/h

Legende:
   Min
   Max


Maximal/Minimal-Werte vom 02.02.2010 - 04.03.2010

Sensor Min Max Avg
Temp
(Aussen-T/F)
-8.1 °C
11-02-2010  01:46:20
15.9 °C
27-02-2010  15:30:01
3.69 °C

Die Daten stammen von einer Davis Vantage Pro 2 Wetter-Station und werden unter Linux mit der Software wview2wettercgi und aufbereitet. Alle Angaben erfolgen ohne Gewähr für ihre Vollständigkeit oder Richtigkeit.
Kontakt: Rainer Krienke krienke@uni-koblenz.de . Meine Webseiten an der Uni Koblenz oder privat.
Version: $Revision: 0.78 $